Scroll down
FLIGHT INFORMATION
Sun Country Airlines

SCX2201

At Arrival Gate

KLAX
 KLAS
DATE: 2020-10-08
GATE:  -
GATE DEPARTURE: 23:19
TAKEOFF: 23:25
DATE: 2020-10-09
GATE:  -
LANDING: 00:17
GATE ARRIVAL: 00:26
FLIGHT DATA
Speed: 
465 kts
Altitude: 
31,010 ft
Stage Length: 
205.2 nm
Block Time: 
1.1 hrs
Flight Time: 
0.9 hrs
Fuel Used: 
5,733 lb
Cleared Route: KLAX MISEN KLAS
TRACK DATA
50,000 ft 1,000 kts
AIRCRAFT INFO AND CUMULATIVE STATS
Aircraft Type: 
B738BCFS
Registration: 
SELCAL: 
MSN/LN: 
33677 / 1486
Operator: 
Total Flights: 
2
Total Block Time: 
1.5 hrs
Total Flight Time: 
1.1 hrs
Total Fuel Time: 
7,374 lb
DATALINK LOG | Newest first | Current as of: 2020-11-29 01:47:12
LABEL SEQUENCE CONTENT Dn/Up
QD265700:26 12.1▼ Dn
QC174800:17▼ Dn
2U5031KLAS 082256Z 04008KT 10SM FEW120 SCT180 BKN250 34/02 A2979 RMK AO2 SLP064 T03440022▲ Up
GA5032GATE PENDING▲ Up
GR5022KLAS 00:18 MAAS YP/UM WCHR/S/C HI-VAL NO DIPL/VIP NO▼ Dn
2S5022KLAS▼ Dn
QB260023:25▼ Dn
QA195423:19 17.8▼ Dn
A35643CLEARED TO KLAS VIA ORCKA5 MISEN KEPEC6. SQUAWK 4171.▲ Up
Q05027[LINK ACK]▲ Up
Q05027[LINK TEST]▼ Dn


AIRCRAFT HISTORY
FLIGHT DATE FLIGHT NO. ORIGIN DESTINATION CLEARED ROUTE BLOCK TIME FLIGHT TIME FUEL USED PILOT
2020-10-08SCX2201KLAX KLAS KLAX MISEN KLAS1.1 hrs0.9 hrs5,733 lbRoberto Stopnicki
2020-08-23SCX823KONT KLAX KONT HUNDA RW25L0.4 hrs0.2 hrs1,641 lbKyle Weber